GRR weather

Gerald R. Ford International Airport
Grand Rapids, Michigan, United States

Public forecast

Using degrees Fahrenheit for public forecast. Weather courtesy of forecast.io.

Current aviation weather report (METAR) for Gerald R. Ford International Airport

Retrieved 2019/11/15 05:53 UTC (36 minutes ago):

KGRR 150553Z AUTO 26014G21KT 9SM OVC017 M01/M04 A3022 RMK AO2 SLP244 T10061044 11006 21011 50001

Aviation forecast (TAF) for Gerald R. Ford International Airport

Retrieved 2019/11/15 06:45 UTC (0 seconds ago):

TAF KGRR 150543Z 1506/1606 25012KT P6SM OVC019 FM150700 25012KT P6SM SCT025 BKN040 FM151000 24008KT P6SM BKN025 FM152200 34008KT P6SM FEW030